Time,TemperatureF,DewpointF,PressureIn,WindDirection,WindDirectionDegrees,WindSpeedMPH,WindSpeedGustMPH,Humidity,HourlyPrecipIn,Conditions,Clouds,dailyrainin,SoftwareType,DateUTC
2013-03-09 00:02:00,52.1,30.3,30.12,ENE,64,0.0,3.0,43,0.00,,SKC,0.00,VWS V14.01,2013-03-09 06:02:00,
2013-03-09 00:07:00,52.8,30.4,30.12,ENE,64,2.0,3.0,42,0.00,,SKC,0.00,VWS V14.01,2013-03-09 06:07:00,
2013-03-09 00:12:00,53.2,30.7,30.12,ENE,64,0.0,3.0,42,0.00,,SKC,0.00,VWS V14.01,2013-03-09 06:12:00,
2013-03-09 00:17:00,53.2,29.5,30.12,ENE,64,0.0,3.0,40,0.00,,SKC,0.00,VWS V14.01,2013-03-09 06:17:00,
2013-03-09 00:23:00,53.2,29.5,30.12,ENE,64,0.0,3.0,40,0.00,,SKC,0.00,VWS V14.01,2013-03-09 06:23:00,
2013-03-09 00:28:00,53.0,31.1,30.12,ENE,64,0.0,3.0,43,0.00,,SKC,0.00,VWS V14.01,2013-03-09 06:28:00,
2013-03-09 00:33:00,52.8,32.1,30.12,ENE,64,0.0,0.0,45,0.00,,SKC,0.00,VWS V14.01,2013-03-09 06:33:00,
2013-03-09 00:38:00,52.6,30.8,30.11,ENE,64,0.0,0.0,43,0.00,,SKC,0.00,VWS V14.01,2013-03-09 06:38:00,
2013-03-09 00:43:00,52.5,31.8,30.11,ENE,64,1.0,1.0,45,0.00,,SKC,0.00,VWS V14.01,2013-03-09 06:43:00,
2013-03-09 00:48:00,52.4,30.0,30.12,ENE,64,0.0,2.0,42,0.00,,SKC,0.00,VWS V14.01,2013-03-09 06:48:00,
2013-03-09 00:53:00,52.5,30.1,30.11,ENE,64,0.0,2.0,42,0.00,,SKC,0.00,VWS V14.01,2013-03-09 06:53:00,
2013-03-09 00:58:00,52.5,30.7,30.11,ENE,64,0.0,2.0,43,0.00,,SKC,0.00,VWS V14.01,2013-03-09 06:58:00,
2013-03-09 01:03:00,52.6,30.2,30.11,ENE,64,0.0,0.0,42,0.00,,SKC,0.00,VWS V14.01,2013-03-09 07:03:00,
2013-03-09 01:08:00,52.7,30.9,30.11,ENE,64,2.0,3.0,43,0.00,,SKC,0.00,VWS V14.01,2013-03-09 07:08:00,
2013-03-09 01:14:00,52.9,30.5,30.11,ENE,71,1.0,4.0,42,0.00,,SKC,0.00,VWS V14.01,2013-03-09 07:14:00,
2013-03-09 01:19:00,53.0,31.1,30.11,ENE,71,0.0,4.0,43,0.00,,SKC,0.00,VWS V14.01,2013-03-09 07:19:00,
2013-03-09 01:24:00,53.1,32.3,30.11,ENE,71,0.0,4.0,45,0.00,,SKC,0.00,VWS V14.01,2013-03-09 07:24:00,
2013-03-09 01:29:00,53.1,31.8,30.11,ENE,71,0.0,4.0,44,0.00,,SKC,0.00,VWS V14.01,2013-03-09 07:29:00,
2013-03-09 01:34:00,53.1,31.2,30.11,ENE,72,4.0,4.0,43,0.00,,SKC,0.00,VWS V14.01,2013-03-09 07:34:00,
2013-03-09 01:39:00,53.2,30.7,30.10,ESE,115,0.0,6.0,42,0.00,,SKC,0.00,VWS V14.01,2013-03-09 07:39:00,
2013-03-09 01:44:00,53.2,31.3,30.10,ESE,119,1.0,6.0,43,0.00,,SKC,0.00,VWS V14.01,2013-03-09 07:44:00,
2013-03-09 01:49:00,53.0,31.1,30.09,ESE,117,0.0,6.0,43,0.00,,SKC,0.00,VWS V14.01,2013-03-09 07:49:00,
2013-03-09 01:54:00,52.9,31.6,30.10,ESE,117,2.0,6.0,44,0.00,,SKC,0.00,VWS V14.01,2013-03-09 07:54:00,
2013-03-09 01:59:00,52.9,31.0,30.09,ESE,119,5.0,6.0,43,0.00,,SKC,0.00,VWS V14.01,2013-03-09 07:59:00,
2013-03-09 02:04:00,52.8,32.1,30.09,ESE,108,4.0,4.0,45,0.00,,SKC,0.00,VWS V14.01,2013-03-09 08:04:00,
2013-03-09 02:09:00,52.7,30.9,30.08,East,94,5.0,7.0,43,0.00,,SKC,0.00,VWS V14.01,2013-03-09 08:09:00,
2013-03-09 02:15:00,52.7,32.0,30.08,East,98,7.0,7.0,45,0.00,,SKC,0.00,VWS V14.01,2013-03-09 08:15:00,
2013-03-09 02:20:00,52.8,31.5,30.08,East,84,4.0,7.0,44,0.00,,SKC,0.00,VWS V14.01,2013-03-09 08:20:00,
2013-03-09 02:25:00,52.9,32.2,30.08,SE,146,4.0,9.0,45,0.00,,SKC,0.00,VWS V14.01,2013-03-09 08:25:00,
2013-03-09 02:30:00,52.8,32.1,30.08,SE,136,5.0,9.0,45,0.00,,SKC,0.00,VWS V14.01,2013-03-09 08:30:00,
2013-03-09 02:35:00,52.8,32.1,30.08,SE,133,2.0,4.0,45,0.00,,SKC,0.00,VWS V14.01,2013-03-09 08:35:00,
2013-03-09 02:40:00,52.8,32.6,30.08,ESE,121,5.0,7.0,46,0.00,,SKC,0.00,VWS V14.01,2013-03-09 08:40:00,
2013-03-09 02:45:00,52.8,32.1,30.08,ESE,119,3.0,7.0,45,0.00,,SKC,0.00,VWS V14.01,2013-03-09 08:45:00,
2013-03-09 02:50:00,52.8,32.6,30.08,ESE,121,6.0,7.0,46,0.00,,SKC,0.00,VWS V14.01,2013-03-09 08:50:00,
2013-03-09 02:55:00,52.7,32.5,30.08,SE,130,3.0,9.0,46,0.00,,SKC,0.00,VWS V14.01,2013-03-09 08:55:00,
2013-03-09 03:00:00,52.6,32.4,30.07,ESE,119,4.0,9.0,46,0.00,,SKC,0.00,VWS V14.01,2013-03-09 09:00:00,
2013-03-09 03:06:00,52.7,32.0,30.07,ESE,115,6.0,9.0,45,0.00,,SKC,0.00,VWS V14.01,2013-03-09 09:06:00,
2013-03-09 03:10:00,52.7,32.0,30.06,ESE,103,2.0,9.0,45,0.00,,SKC,0.00,VWS V14.01,2013-03-09 09:10:00,
2013-03-09 03:16:00,52.8,32.1,30.06,ESE,119,3.0,10.0,45,0.00,,SKC,0.00,VWS V14.01,2013-03-09 09:16:00,
2013-03-09 03:21:00,52.8,32.1,30.05,ESE,112,5.0,10.0,45,0.00,,SKC,0.00,VWS V14.01,2013-03-09 09:21:00,
2013-03-09 03:26:00,52.7,33.0,30.04,East,90,9.0,13.0,47,0.00,,SKC,0.00,VWS V14.01,2013-03-09 09:26:00,
2013-03-09 03:31:00,52.5,32.3,30.03,ESE,103,11.0,14.0,46,0.00,,SKC,0.00,VWS V14.01,2013-03-09 09:31:00,
2013-03-09 03:36:00,52.6,32.4,30.03,SSE,157,5.0,15.0,46,0.00,,SKC,0.00,VWS V14.01,2013-03-09 09:36:00,
2013-03-09 03:41:00,52.7,33.0,30.04,SSE,165,4.0,15.0,47,0.00,,SKC,0.00,VWS V14.01,2013-03-09 09:41:00,
2013-03-09 03:46:00,52.7,32.5,30.05,SSE,165,3.0,15.0,46,0.00,,SKC,0.00,VWS V14.01,2013-03-09 09:46:00,
2013-03-09 03:51:00,52.7,32.5,30.05,SE,138,6.0,15.0,46,0.00,,SKC,0.00,VWS V14.01,2013-03-09 09:51:00,
2013-03-09 03:56:00,52.6,33.0,30.05,SSE,150,5.0,15.0,47,0.00,,SKC,0.00,VWS V14.01,2013-03-09 09:56:00,
2013-03-09 04:01:00,52.6,32.4,30.05,SSE,161,5.0,15.0,46,0.00,,SKC,0.00,VWS V14.01,2013-03-09 10:01:00,
2013-03-09 04:06:00,52.6,33.0,30.04,SSE,159,5.0,11.0,47,0.00,,SKC,0.00,VWS V14.01,2013-03-09 10:06:00,
2013-03-09 04:11:00,52.6,33.0,30.04,ESE,109,7.0,11.0,47,0.00,,SKC,0.00,VWS V14.01,2013-03-09 10:11:00,
2013-03-09 04:16:00,52.6,32.4,30.04,ESE,113,6.0,11.0,46,0.00,,SKC,0.00,VWS V14.01,2013-03-09 10:16:00,
2013-03-09 04:22:00,52.6,33.5,30.05,SSE,157,4.0,11.0,48,0.00,,SKC,0.00,VWS V14.01,2013-03-09 10:22:00,
2013-03-09 04:27:00,52.5,32.9,30.06,SSE,167,1.0,11.0,47,0.00,,SKC,0.00,VWS V14.01,2013-03-09 10:27:00,
2013-03-09 04:32:00,52.5,32.3,30.06,SSE,167,0.0,11.0,46,0.00,,SKC,0.00,VWS V14.01,2013-03-09 10:32:00,
2013-03-09 04:37:00,52.4,32.2,30.06,SSE,167,0.0,2.0,46,0.00,,SKC,0.00,VWS V14.01,2013-03-09 10:37:00,
2013-03-09 04:42:00,52.4,32.2,30.07,SSE,167,0.0,2.0,46,0.00,,SKC,0.00,VWS V14.01,2013-03-09 10:42:00,
2013-03-09 04:47:00,52.4,32.8,30.07,SSE,167,0.0,2.0,47,0.00,,SKC,0.00,VWS V14.01,2013-03-09 10:47:00,
2013-03-09 04:52:00,52.3,32.7,30.08,SSE,167,0.0,2.0,47,0.00,,SKC,0.00,VWS V14.01,2013-03-09 10:52:00,
2013-03-09 04:57:00,52.2,32.6,30.08,SSE,167,0.0,2.0,47,0.00,,SKC,0.00,VWS V14.01,2013-03-09 10:57:00,
2013-03-09 05:02:00,52.1,33.0,30.07,SSE,167,0.0,2.0,48,0.00,,SKC,0.00,VWS V14.01,2013-03-09 11:02:00,
2013-03-09 05:07:00,52.1,34.0,30.07,SSE,167,0.0,0.0,50,0.00,,SKC,0.00,VWS V14.01,2013-03-09 11:07:00,
2013-03-09 05:12:00,52.0,32.9,30.08,SSE,167,0.0,0.0,48,0.00,,SKC,0.00,VWS V14.01,2013-03-09 11:12:00,
2013-03-09 05:17:00,51.9,33.9,30.08,SSE,167,0.0,0.0,50,0.00,,SKC,0.00,VWS V14.01,2013-03-09 11:17:00,
2013-03-09 05:22:00,51.8,37.5,30.08,SSE,167,0.0,0.0,58,0.00,,SKC,0.00,VWS V14.01,2013-03-09 11:22:00,
2013-03-09 05:27:00,51.5,35.0,30.08,SSE,167,0.0,0.0,53,0.00,,SKC,0.00,VWS V14.01,2013-03-09 11:27:00,
2013-03-09 05:33:00,51.2,35.6,30.08,SSE,167,0.0,0.0,55,0.00,,SKC,0.00,VWS V14.01,2013-03-09 11:33:00,
2013-03-09 05:38:00,50.9,34.9,30.09,SSE,167,0.0,0.0,54,0.00,,SKC,0.00,VWS V14.01,2013-03-09 11:38:00,
2013-03-09 05:43:00,50.8,35.2,30.08,SSE,167,0.0,0.0,55,0.00,,SKC,0.00,VWS V14.01,2013-03-09 11:43:00,
2013-03-09 05:48:00,50.7,36.5,30.08,SSE,167,0.0,0.0,58,0.00,,SKC,0.00,VWS V14.01,2013-03-09 11:48:00,
2013-03-09 05:53:00,50.7,35.6,30.08,SSE,167,0.0,0.0,56,0.00,,SKC,0.00,VWS V14.01,2013-03-09 11:53:00,
2013-03-09 05:58:00,50.6,36.4,30.08,SSE,167,0.0,0.0,58,0.00,,SKC,0.00,VWS V14.01,2013-03-09 11:58:00,
2013-03-09 06:03:00,50.5,37.6,30.09,SSE,167,0.0,0.0,61,0.00,,SKC,0.00,VWS V14.01,2013-03-09 12:03:00,
2013-03-09 06:08:00,50.3,36.1,30.09,SSE,167,0.0,0.0,58,0.00,,SKC,0.00,VWS V14.01,2013-03-09 12:08:00,
2013-03-09 06:13:00,50.3,35.7,30.09,SSE,167,0.0,0.0,57,0.00,,SKC,0.00,VWS V14.01,2013-03-09 12:13:00,
2013-03-09 06:18:00,50.2,36.4,30.10,SSE,167,0.0,0.0,59,0.00,,SKC,0.00,VWS V14.01,2013-03-09 12:18:00,
2013-03-09 06:23:00,50.2,34.2,30.10,SSE,167,0.0,0.0,54,0.00,,SKC,0.00,VWS V14.01,2013-03-09 12:23:00,
2013-03-09 06:29:00,50.3,34.3,30.10,SSE,167,0.0,0.0,54,0.00,,SKC,0.00,VWS V14.01,2013-03-09 12:29:00,
2013-03-09 06:34:00,50.3,35.7,30.10,SSE,167,0.0,0.0,57,0.00,,SKC,0.00,VWS V14.01,2013-03-09 12:34:00,
2013-03-09 06:39:00,50.4,35.3,30.10,SSE,167,0.0,0.0,56,0.00,,SKC,0.00,VWS V14.01,2013-03-09 12:39:00,
2013-03-09 06:44:00,50.3,35.7,30.10,SSE,167,0.0,0.0,57,0.00,,SKC,0.00,VWS V14.01,2013-03-09 12:44:00,
2013-03-09 06:49:00,50.5,35.4,30.09,SSE,165,1.0,2.0,56,0.00,,SKC,0.00,VWS V14.01,2013-03-09 12:49:00,
2013-03-09 06:54:00,50.9,35.3,30.09,SSE,165,0.0,2.0,55,0.00,,SKC,0.00,VWS V14.01,2013-03-09 12:54:00,
2013-03-09 06:59:00,51.1,35.0,30.09,SSE,165,2.0,2.0,54,0.00,,SKC,0.00,VWS V14.01,2013-03-09 12:59:00,
2013-03-09 07:04:00,51.3,36.2,30.10,SSE,165,0.0,1.0,56,0.00,,SKC,0.00,VWS V14.01,2013-03-09 13:04:00,
2013-03-09 07:09:00,51.4,35.8,30.10,SSE,165,0.0,1.0,55,0.00,,SKC,0.00,VWS V14.01,2013-03-09 13:09:00,
2013-03-09 07:15:00,51.4,35.8,30.10,SSE,165,0.0,1.0,55,0.00,,SKC,0.00,VWS V14.01,2013-03-09 13:15:00,
2013-03-09 07:20:00,51.5,35.4,30.10,SSE,165,0.0,1.0,54,0.00,,SKC,0.00,VWS V14.01,2013-03-09 13:20:00,
2013-03-09 07:25:00,51.7,34.7,30.09,ESE,119,3.0,4.0,52,0.00,,SKC,0.00,VWS V14.01,2013-03-09 13:25:00,
2013-03-09 07:30:00,51.9,35.3,30.09,ESE,118,1.0,4.0,53,0.00,,SKC,0.00,VWS V14.01,2013-03-09 13:30:00,
2013-03-09 07:35:00,52.2,34.6,30.10,ESE,118,0.0,2.0,51,0.00,,SKC,0.00,VWS V14.01,2013-03-09 13:35:00,
2013-03-09 07:40:00,52.6,34.0,30.09,ESE,103,3.0,6.0,49,0.00,,SKC,0.00,VWS V14.01,2013-03-09 13:40:00,
2013-03-09 07:45:00,52.9,34.3,30.09,SE,132,5.0,9.0,49,0.00,,SKC,0.00,VWS V14.01,2013-03-09 13:45:00,
2013-03-09 07:50:00,53.1,35.0,30.09,ESE,123,4.0,9.0,50,0.00,,SKC,0.00,VWS V14.01,2013-03-09 13:50:00,
2013-03-09 07:55:00,53.2,34.0,30.09,SE,134,5.0,9.0,48,0.00,,SKC,0.00,VWS V14.01,2013-03-09 13:55:00,
2013-03-09 08:00:00,53.4,34.7,30.09,SE,144,4.0,9.0,49,0.00,,SKC,0.00,VWS V14.01,2013-03-09 14:00:00,
2013-03-09 08:05:00,53.6,33.9,30.09,SE,140,4.0,7.0,47,0.00,,SKC,0.00,VWS V14.01,2013-03-09 14:05:00,
2013-03-09 08:10:00,53.9,34.2,30.09,SSE,150,4.0,11.0,47,0.00,,SKC,0.00,VWS V14.01,2013-03-09 14:10:00,
2013-03-09 08:15:00,54.2,34.4,30.09,SE,136,6.0,11.0,47,0.00,,SKC,0.00,VWS V14.01,2013-03-09 14:15:00,
2013-03-09 08:20:00,54.4,34.1,30.09,SE,130,3.0,11.0,46,0.00,,SKC,0.00,VWS V14.01,2013-03-09 14:20:00,
2013-03-09 08:25:00,54.6,34.8,30.09,SE,130,5.0,11.0,47,0.00,,SKC,0.00,VWS V14.01,2013-03-09 14:25:00,
2013-03-09 08:30:00,54.9,34.0,30.09,SSE,167,9.0,11.0,45,0.00,,SKC,0.00,VWS V14.01,2013-03-09 14:30:00,
2013-03-09 08:35:00,55.3,34.3,30.09,SSE,165,4.0,12.0,45,0.00,,SKC,0.00,VWS V14.01,2013-03-09 14:35:00,
2013-03-09 08:40:00,56.0,34.4,30.09,ESE,121,7.0,12.0,44,0.00,,SKC,0.00,VWS V14.01,2013-03-09 14:40:00,
2013-03-09 08:46:00,56.8,34.6,30.09,SE,136,5.0,12.0,43,0.00,,SKC,0.00,VWS V14.01,2013-03-09 14:46:00,
2013-03-09 08:51:00,57.0,34.8,30.09,SE,125,9.0,13.0,43,0.00,,SKC,0.00,VWS V14.01,2013-03-09 14:51:00,
2013-03-09 08:56:00,57.0,35.3,30.09,SSE,153,7.0,13.0,44,0.00,,SKC,0.00,VWS V14.01,2013-03-09 14:56:00,
2013-03-09 09:01:00,56.9,35.2,30.08,SSE,165,7.0,13.0,44,0.00,,SKC,0.00,VWS V14.01,2013-03-09 15:01:00,
2013-03-09 09:06:00,57.0,34.8,30.09,SE,132,10.0,14.0,43,0.00,,SKC,0.00,VWS V14.01,2013-03-09 15:06:00,
2013-03-09 09:11:00,56.9,35.2,30.09,SE,128,5.0,14.0,44,0.00,,SKC,0.00,VWS V14.01,2013-03-09 15:11:00,
2013-03-09 09:16:00,57.0,35.3,30.08,SE,142,5.0,14.0,44,0.00,,SKC,0.00,VWS V14.01,2013-03-09 15:16:00,
2013-03-09 09:21:00,57.2,34.9,30.07,SE,125,9.0,14.0,43,0.00,,SKC,0.00,VWS V14.01,2013-03-09 15:21:00,
2013-03-09 09:26:00,57.4,35.1,30.08,SE,142,0.0,14.0,43,0.00,,SKC,0.00,VWS V14.01,2013-03-09 15:26:00,
2013-03-09 09:31:00,58.2,35.8,30.08,SE,135,7.0,14.0,43,0.00,,SKC,0.00,VWS V14.01,2013-03-09 15:31:00,
2013-03-09 09:36:00,58.5,35.5,30.07,SE,130,6.0,13.0,42,0.00,,SKC,0.00,VWS V14.01,2013-03-09 15:36:00,
2013-03-09 09:41:00,58.8,35.8,30.08,South,190,12.0,16.0,42,0.00,,SKC,0.00,VWS V14.01,2013-03-09 15:41:00,
2013-03-09 09:46:00,59.0,36.0,30.07,South,189,7.0,16.0,42,0.00,,SKC,0.00,VWS V14.01,2013-03-09 15:46:00,
2013-03-09 09:52:00,59.0,35.3,30.07,SE,128,11.0,16.0,41,0.00,,SKC,0.00,VWS V14.01,2013-03-09 15:52:00,
2013-03-09 09:57:00,59.0,35.3,30.07,SSE,168,4.0,16.0,41,0.00,,SKC,0.00,VWS V14.01,2013-03-09 15:57:00,
2013-03-09 10:02:00,59.0,36.0,30.06,SE,142,6.0,16.0,42,0.00,,SKC,0.00,VWS V14.01,2013-03-09 16:02:00,
2013-03-09 10:07:00,59.0,35.3,30.07,SSE,157,3.0,13.0,41,0.00,,SKC,0.00,VWS V14.01,2013-03-09 16:07:00,
2013-03-09 10:12:00,59.1,35.4,30.07,SE,128,10.0,13.0,41,0.00,,SKC,0.00,VWS V14.01,2013-03-09 16:12:00,
2013-03-09 10:17:00,59.7,36.6,30.06,SSE,153,8.0,13.0,42,0.00,,SKC,0.00,VWS V14.01,2013-03-09 16:17:00,
2013-03-09 10:22:00,60.2,36.4,30.06,SSE,153,5.0,13.0,41,0.00,,SKC,0.00,VWS V14.01,2013-03-09 16:22:00,
2013-03-09 10:27:00,60.4,36.6,30.06,ESE,119,9.0,13.0,41,0.00,,SKC,0.00,VWS V14.01,2013-03-09 16:27:00,
2013-03-09 10:32:00,60.5,36.1,30.06,South,171,4.0,13.0,40,0.00,,SKC,0.00,VWS V14.01,2013-03-09 16:32:00,
2013-03-09 10:37:00,60.8,35.1,30.05,South,191,9.0,12.0,38,0.00,,SKC,0.00,VWS V14.01,2013-03-09 16:37:00,
2013-03-09 10:42:00,61.0,35.9,30.05,SE,132,6.0,13.0,39,0.00,,SKC,0.00,VWS V14.01,2013-03-09 16:42:00,
2013-03-09 10:47:00,61.3,35.5,30.06,SSE,147,9.0,13.0,38,0.00,,SKC,0.00,VWS V14.01,2013-03-09 16:47:00,
2013-03-09 10:52:00,61.7,35.9,30.05,SSE,159,7.0,13.0,38,0.00,,SKC,0.00,VWS V14.01,2013-03-09 16:52:00,
2013-03-09 10:57:00,61.8,36.6,30.05,SSE,157,6.0,14.0,39,0.00,,SKC,0.00,VWS V14.01,2013-03-09 16:57:00,
2013-03-09 11:02:00,62.0,36.1,30.05,SE,134,8.0,14.0,38,0.00,,SKC,0.00,VWS V14.01,2013-03-09 17:02:00,
2013-03-09 11:07:00,62.6,36.7,30.05,SSE,152,11.0,12.0,38,0.00,,SKC,0.00,VWS V14.01,2013-03-09 17:07:00,
2013-03-09 11:12:00,63.0,36.3,30.05,SE,141,11.0,14.0,37,0.00,,SKC,0.00,VWS V14.01,2013-03-09 17:12:00,
2013-03-09 11:17:00,63.5,37.5,30.05,SSE,159,6.0,14.0,38,0.00,,SKC,0.00,VWS V14.01,2013-03-09 17:17:00,
2013-03-09 11:22:00,63.4,37.4,30.05,SE,138,5.0,14.0,38,0.00,,SKC,0.00,VWS V14.01,2013-03-09 17:22:00,
2013-03-09 11:27:00,62.9,36.9,30.04,SSE,164,10.0,18.0,38,0.00,,SKC,0.00,VWS V14.01,2013-03-09 17:27:00,
2013-03-09 11:32:00,63.0,37.7,30.03,SE,134,7.0,7.0,39,0.00,,SKC,0.00,VWS V14.01,2013-03-09 17:32:00,
2013-03-09 11:37:00,63.3,37.3,30.03,SE,132,9.0,14.0,38,0.00,,SKC,0.00,VWS V14.01,2013-03-09 17:37:00,
2013-03-09 11:43:00,63.5,37.5,30.03,South,173,6.0,16.0,38,0.00,,SKC,0.00,VWS V14.01,2013-03-09 17:43:00,
2013-03-09 11:48:00,63.6,38.2,30.03,SE,128,7.0,16.0,39,0.00,,SKC,0.00,VWS V14.01,2013-03-09 17:48:00,
2013-03-09 11:53:00,63.6,37.5,30.03,SSE,161,10.0,16.0,38,0.00,,SKC,0.00,VWS V14.01,2013-03-09 17:53:00,
2013-03-09 11:58:00,63.5,37.5,30.03,SSE,150,2.0,16.0,38,0.00,,SKC,0.00,VWS V14.01,2013-03-09 17:58:00,
2013-03-09 12:03:00,63.8,38.4,30.02,SSE,150,3.0,5.0,39,0.00,,SKC,0.00,VWS V14.01,2013-03-09 18:03:00,
2013-03-09 12:08:00,64.2,38.8,30.02,South,184,5.0,12.0,39,0.00,,SKC,0.00,VWS V14.01,2013-03-09 18:08:00,
2013-03-09 12:13:00,64.8,39.3,30.02,SSE,168,3.0,12.0,39,0.00,,SKC,0.00,VWS V14.01,2013-03-09 18:13:00,
2013-03-09 12:18:00,65.5,39.2,30.01,SSE,148,9.0,14.0,38,0.00,,SKC,0.00,VWS V14.01,2013-03-09 18:18:00,
2013-03-09 12:23:00,66.1,39.1,30.01,SSE,164,3.0,19.0,37,0.00,,SKC,0.00,VWS V14.01,2013-03-09 18:23:00,
2013-03-09 12:28:00,66.4,37.9,30.00,SSE,165,10.0,19.0,35,0.00,,SKC,0.00,VWS V14.01,2013-03-09 18:28:00,
2013-03-09 12:33:00,66.7,38.2,30.00,SE,132,9.0,11.0,35,0.00,,SKC,0.00,VWS V14.01,2013-03-09 18:33:00,
2013-03-09 12:38:00,67.0,38.5,30.00,SSE,168,7.0,14.0,35,0.00,,SKC,0.00,VWS V14.01,2013-03-09 18:38:00,
2013-03-09 12:44:00,66.9,38.4,30.00,SSE,160,9.0,17.0,35,0.00,,SKC,0.00,VWS V14.01,2013-03-09 18:44:00,
2013-03-09 12:49:00,67.0,38.5,29.99,South,173,3.0,17.0,35,0.00,,SKC,0.00,VWS V14.01,2013-03-09 18:49:00,
2013-03-09 12:54:00,67.0,38.5,29.99,SE,137,13.0,17.0,35,0.00,,SKC,0.00,VWS V14.01,2013-03-09 18:54:00,
2013-03-09 12:59:00,66.9,38.4,29.99,SSW,211,11.0,17.0,35,0.00,,SKC,0.00,VWS V14.01,2013-03-09 18:59:00,
2013-03-09 13:04:00,66.9,38.4,29.98,SE,141,6.0,14.0,35,0.00,,SKC,0.00,VWS V14.01,2013-03-09 19:04:00,
2013-03-09 13:09:00,67.1,38.6,29.98,SSE,153,3.0,14.0,35,0.00,,SKC,0.00,VWS V14.01,2013-03-09 19:09:00,
2013-03-09 13:14:00,67.0,39.2,29.97,SSE,167,14.0,17.0,36,0.00,,SKC,0.00,VWS V14.01,2013-03-09 19:14:00,
2013-03-09 13:19:00,66.6,37.4,29.97,SE,141,7.0,21.0,34,0.00,,SKC,0.00,VWS V14.01,2013-03-09 19:19:00,
2013-03-09 13:24:00,66.8,38.3,29.97,SSW,205,4.0,21.0,35,0.00,,SKC,0.00,VWS V14.01,2013-03-09 19:24:00,
2013-03-09 13:29:00,66.8,38.3,29.97,South,178,4.0,21.0,35,0.00,,SKC,0.00,VWS V14.01,2013-03-09 19:29:00,
2013-03-09 13:34:00,66.8,38.3,29.97,SSE,157,7.0,16.0,35,0.00,,SKC,0.00,VWS V14.01,2013-03-09 19:34:00,
2013-03-09 13:39:00,66.6,38.1,29.96,South,182,11.0,16.0,35,0.00,,SKC,0.00,VWS V14.01,2013-03-09 19:39:00,
2013-03-09 13:44:00,66.7,38.2,29.97,South,188,3.0,16.0,35,0.00,,SKC,0.00,VWS V14.01,2013-03-09 19:44:00,
2013-03-09 13:49:00,66.6,38.1,29.97,South,173,6.0,16.0,35,0.00,,SKC,0.00,VWS V14.01,2013-03-09 19:49:00,
2013-03-09 13:54:00,66.6,38.8,29.96,SSE,153,12.0,16.0,36,0.00,,SKC,0.00,VWS V14.01,2013-03-09 19:54:00,
2013-03-09 13:59:00,66.3,37.8,29.96,SE,130,9.0,20.0,35,0.00,,SKC,0.00,VWS V14.01,2013-03-09 19:59:00,
2013-03-09 14:04:00,66.2,39.2,29.95,South,177,11.0,15.0,37,0.00,,SKC,0.00,VWS V14.01,2013-03-09 20:04:00,
2013-03-09 14:09:00,66.5,38.8,29.95,SSE,156,5.0,15.0,36,0.00,,SKC,0.00,VWS V14.01,2013-03-09 20:09:00,
2013-03-09 14:15:00,67.2,38.7,29.95,SSE,160,6.0,16.0,35,0.00,,SKC,0.00,VWS V14.01,2013-03-09 20:15:00,
2013-03-09 14:19:00,67.8,39.9,29.95,SSE,155,5.0,16.0,36,0.00,,SKC,0.00,VWS V14.01,2013-03-09 20:19:00,
2013-03-09 14:24:00,67.5,38.9,29.95,SSE,159,5.0,16.0,35,0.00,,SKC,0.00,VWS V14.01,2013-03-09 20:24:00,
2013-03-09 14:30:00,67.5,39.6,29.94,SE,146,4.0,16.0,36,0.00,,SKC,0.00,VWS V14.01,2013-03-09 20:30:00,
2013-03-09 14:35:00,68.0,39.3,29.94,South,169,7.0,13.0,35,0.00,,SKC,0.00,VWS V14.01,2013-03-09 20:35:00,
2013-03-09 14:40:00,67.9,39.3,29.94,SE,128,10.0,15.0,35,0.00,,SKC,0.00,VWS V14.01,2013-03-09 20:40:00,
2013-03-09 14:45:00,67.6,39.7,29.94,SSE,155,5.0,15.0,36,0.00,,SKC,0.00,VWS V14.01,2013-03-09 20:45:00,
2013-03-09 14:50:00,67.5,38.9,29.93,SSE,159,8.0,15.0,35,0.00,,SKC,0.00,VWS V14.01,2013-03-09 20:50:00,
2013-03-09 14:55:00,67.7,39.1,29.93,SE,144,8.0,15.0,35,0.00,,SKC,0.00,VWS V14.01,2013-03-09 20:55:00,
2013-03-09 15:00:00,68.0,40.1,29.93,SE,128,7.0,15.0,36,0.00,,SKC,0.00,VWS V14.01,2013-03-09 21:00:00,
2013-03-09 15:05:00,68.5,39.8,29.92,South,182,5.0,15.0,35,0.00,,SKC,0.00,VWS V14.01,2013-03-09 21:05:00,
2013-03-09 15:10:00,69.4,39.1,29.92,SSE,148,11.0,16.0,33,0.00,,SKC,0.00,VWS V14.01,2013-03-09 21:10:00,
2013-03-09 15:15:00,70.3,37.4,29.92,South,173,17.0,20.0,30,0.00,,SKC,0.00,VWS V14.01,2013-03-09 21:15:00,
2013-03-09 15:20:00,70.8,37.9,29.92,SE,141,12.0,20.0,30,0.00,,SKC,0.00,VWS V14.01,2013-03-09 21:20:00,
2013-03-09 15:25:00,70.8,38.7,29.91,SE,140,6.0,20.0,31,0.00,,SKC,0.00,VWS V14.01,2013-03-09 21:25:00,
2013-03-09 15:30:00,70.1,36.4,29.91,SE,142,15.0,20.0,29,0.00,,SKC,0.00,VWS V14.01,2013-03-09 21:30:00,
2013-03-09 15:35:00,70.1,36.4,29.91,SSE,147,11.0,18.0,29,0.00,,SKC,0.00,VWS V14.01,2013-03-09 21:35:00,
2013-03-09 15:40:00,69.8,37.0,29.91,SE,139,9.0,18.0,30,0.00,,SKC,0.00,VWS V14.01,2013-03-09 21:40:00,
2013-03-09 15:45:00,69.7,36.9,29.91,South,171,8.0,18.0,30,0.00,,SKC,0.00,VWS V14.01,2013-03-09 21:45:00,
2013-03-09 15:50:00,69.5,36.7,29.92,SSW,193,4.0,18.0,30,0.00,,SKC,0.00,VWS V14.01,2013-03-09 21:50:00,
2013-03-09 15:55:00,69.4,36.7,29.91,South,182,7.0,18.0,30,0.00,,SKC,0.00,VWS V14.01,2013-03-09 21:55:00,
2013-03-09 16:01:00,69.4,36.7,29.91,SSW,194,9.0,18.0,30,0.00,,SKC,0.00,VWS V14.01,2013-03-09 22:01:00,
2013-03-09 16:06:00,69.4,37.5,29.91,SSE,168,3.0,12.0,31,0.00,,SKC,0.00,VWS V14.01,2013-03-09 22:06:00,
2013-03-09 16:11:00,69.3,38.2,29.91,SSE,152,6.0,12.0,32,0.00,,SKC,0.00,VWS V14.01,2013-03-09 22:11:00,
2013-03-09 16:16:00,69.1,38.0,29.91,SE,146,9.0,12.0,32,0.00,,SKC,0.00,VWS V14.01,2013-03-09 22:16:00,
2013-03-09 16:21:00,69.0,38.7,29.91,SE,139,5.0,12.0,33,0.00,,SKC,0.00,VWS V14.01,2013-03-09 22:21:00,
2013-03-09 16:26:00,69.0,38.7,29.91,South,182,2.0,13.0,33,0.00,,SKC,0.00,VWS V14.01,2013-03-09 22:26:00,
2013-03-09 16:31:00,68.9,38.6,29.91,South,175,4.0,13.0,33,0.00,,SKC,0.00,VWS V14.01,2013-03-09 22:31:00,
2013-03-09 16:36:00,68.7,39.2,29.90,SSE,148,5.0,7.0,34,0.00,,SKC,0.00,VWS V14.01,2013-03-09 22:36:00,
2013-03-09 16:41:00,68.6,39.1,29.90,SSE,164,3.0,7.0,34,0.00,,SKC,0.00,VWS V14.01,2013-03-09 22:41:00,
2013-03-09 16:46:00,68.6,39.1,29.90,SSE,167,4.0,7.0,34,0.00,,SKC,0.00,VWS V14.01,2013-03-09 22:46:00,
2013-03-09 16:51:00,68.6,39.1,29.90,South,169,2.0,7.0,34,0.00,,SKC,0.00,VWS V14.01,2013-03-09 22:51:00,
2013-03-09 16:56:00,68.7,38.5,29.90,South,182,6.0,7.0,33,0.00,,SKC,0.00,VWS V14.01,2013-03-09 22:56:00,
2013-03-09 17:02:00,68.7,39.2,29.90,SSE,157,3.0,7.0,34,0.00,,SKC,0.00,VWS V14.01,2013-03-09 23:02:00,
2013-03-09 17:07:00,68.7,39.2,29.90,South,175,3.0,5.0,34,0.00,,SKC,0.00,VWS V14.01,2013-03-09 23:07:00,
2013-03-09 17:12:00,68.6,38.4,29.90,South,171,2.0,6.0,33,0.00,,SKC,0.00,VWS V14.01,2013-03-09 23:12:00,
2013-03-09 17:17:00,68.6,38.4,29.90,SSE,167,4.0,6.0,33,0.00,,SKC,0.00,VWS V14.01,2013-03-09 23:17:00,
2013-03-09 17:22:00,68.5,38.3,29.90,SSE,167,2.0,6.0,33,0.00,,SKC,0.00,VWS V14.01,2013-03-09 23:22:00,
2013-03-09 17:27:00,68.5,39.0,29.90,South,171,0.0,6.0,34,0.00,,SKC,0.00,VWS V14.01,2013-03-09 23:27:00,
2013-03-09 17:32:00,68.4,39.0,29.90,South,175,3.0,6.0,34,0.00,,SKC,0.00,VWS V14.01,2013-03-09 23:32:00,
2013-03-09 17:37:00,68.3,38.9,29.90,South,175,2.0,6.0,34,0.00,,SKC,0.00,VWS V14.01,2013-03-09 23:37:00,
2013-03-09 17:42:00,68.2,38.8,29.90,South,175,0.0,6.0,34,0.00,,SKC,0.00,VWS V14.01,2013-03-09 23:42:00,
2013-03-09 17:47:00,68.0,38.6,29.90,South,175,0.0,6.0,34,0.00,,SKC,0.00,VWS V14.01,2013-03-09 23:47:00,
2013-03-09 17:53:00,67.7,38.3,29.91,South,175,0.0,6.0,34,0.00,,SKC,0.00,VWS V14.01,2013-03-09 23:53:00,
2013-03-09 17:58:00,67.6,38.3,29.91,South,175,0.0,6.0,34,0.00,,SKC,0.00,VWS V14.01,2013-03-09 23:58:00,
2013-03-09 18:03:00,67.5,38.9,29.91,South,175,0.0,0.0,35,0.00,,SKC,0.00,VWS V14.01,2013-03-10 00:03:00,
2013-03-09 18:08:00,67.3,38.7,29.91,South,175,2.0,5.0,35,0.00,,SKC,0.00,VWS V14.01,2013-03-10 00:08:00,
2013-03-09 18:13:00,67.0,39.2,29.91,South,175,0.0,5.0,36,0.00,,SKC,0.00,VWS V14.01,2013-03-10 00:13:00,
2013-03-09 18:18:00,66.6,38.8,29.91,South,175,2.0,5.0,36,0.00,,SKC,0.00,VWS V14.01,2013-03-10 00:18:00,
2013-03-09 18:23:00,66.3,39.3,29.91,South,175,0.0,5.0,37,0.00,,SKC,0.00,VWS V14.01,2013-03-10 00:23:00,
2013-03-09 18:28:00,65.7,38.7,29.91,South,175,0.0,5.0,37,0.00,,SKC,0.00,VWS V14.01,2013-03-10 00:28:00,
2013-03-09 18:33:00,65.5,39.2,29.91,South,175,0.0,0.0,38,0.00,,SKC,0.00,VWS V14.01,2013-03-10 00:33:00,
2013-03-09 18:38:00,65.3,39.1,29.91,South,175,0.0,2.0,38,0.00,,SKC,0.00,VWS V14.01,2013-03-10 00:38:00,
2013-03-09 18:44:00,65.2,39.0,29.91,South,175,3.0,3.0,38,0.00,,SKC,0.00,VWS V14.01,2013-03-10 00:44:00,
2013-03-09 18:49:00,65.3,39.1,29.91,South,175,0.0,3.0,38,0.00,,SKC,0.00,VWS V14.01,2013-03-10 00:49:00,
2013-03-09 18:54:00,65.3,39.7,29.91,South,175,0.0,3.0,39,0.00,,SKC,0.00,VWS V14.01,2013-03-10 00:54:00,
2013-03-09 18:59:00,65.3,40.4,29.91,SSE,156,2.0,5.0,40,0.00,,SKC,0.00,VWS V14.01,2013-03-10 00:59:00,
2013-03-09 19:04:00,65.5,39.9,29.90,SE,134,11.0,11.0,39,0.00,,SKC,0.00,VWS V14.01,2013-03-10 01:04:00,
2013-03-09 19:09:00,65.6,40.7,29.90,SE,134,3.0,11.0,40,0.00,,SKC,0.00,VWS V14.01,2013-03-10 01:09:00,
2013-03-09 19:14:00,65.5,40.6,29.90,SE,134,1.0,11.0,40,0.00,,SKC,0.00,VWS V14.01,2013-03-10 01:14:00,
2013-03-09 19:19:00,65.4,40.5,29.90,SE,129,6.0,11.0,40,0.00,,SKC,0.00,VWS V14.01,2013-03-10 01:19:00,
2013-03-09 19:24:00,65.3,40.4,29.89,ESE,114,7.0,11.0,40,0.00,,SKC,0.00,VWS V14.01,2013-03-10 01:24:00,
2013-03-09 19:29:00,65.3,41.0,29.89,ESE,115,4.0,11.0,41,0.00,,SKC,0.00,VWS V14.01,2013-03-10 01:29:00,
2013-03-09 19:35:00,65.2,40.9,29.89,ESE,116,2.0,3.0,41,0.00,,SKC,0.00,VWS V14.01,2013-03-10 01:35:00,
2013-03-09 19:40:00,64.9,40.7,29.89,ESE,115,3.0,5.0,41,0.00,,SKC,0.00,VWS V14.01,2013-03-10 01:40:00,
2013-03-09 19:45:00,64.8,40.6,29.89,ESE,115,2.0,5.0,41,0.00,,SKC,0.00,VWS V14.01,2013-03-10 01:45:00,
2013-03-09 19:50:00,64.6,41.0,29.88,ESE,119,3.0,6.0,42,0.00,,SKC,0.00,VWS V14.01,2013-03-10 01:50:00,
2013-03-09 19:55:00,64.4,41.4,29.88,ESE,119,3.0,6.0,43,0.00,,SKC,0.00,VWS V14.01,2013-03-10 01:55:00,
2013-03-09 20:00:00,64.1,41.2,29.88,ESE,118,3.0,7.0,43,0.00,,SKC,0.00,VWS V14.01,2013-03-10 02:00:00,
2013-03-09 20:05:00,64.1,41.2,29.88,ESE,119,2.0,5.0,43,0.00,,SKC,0.00,VWS V14.01,2013-03-10 02:05:00,
2013-03-09 20:10:00,63.9,41.0,29.88,ESE,119,7.0,7.0,43,0.00,,SKC,0.00,VWS V14.01,2013-03-10 02:10:00,
2013-03-09 20:15:00,64.0,41.7,29.88,ESE,118,5.0,8.0,44,0.00,,SKC,0.00,VWS V14.01,2013-03-10 02:15:00,
2013-03-09 20:20:00,63.9,41.6,29.88,SE,138,5.0,8.0,44,0.00,,SKC,0.00,VWS V14.01,2013-03-10 02:20:00,
2013-03-09 20:25:00,63.9,41.6,29.88,SE,138,5.0,9.0,44,0.00,,SKC,0.00,VWS V14.01,2013-03-10 02:25:00,
2013-03-09 20:30:00,63.8,41.5,29.88,SE,127,4.0,9.0,44,0.00,,SKC,0.00,VWS V14.01,2013-03-10 02:30:00,
2013-03-09 20:35:00,63.7,41.4,29.88,SE,127,6.0,8.0,44,0.00,,SKC,0.00,VWS V14.01,2013-03-10 02:35:00,
2013-03-09 20:40:00,63.6,41.3,29.88,SSE,155,7.0,9.0,44,0.00,,SKC,0.00,VWS V14.01,2013-03-10 02:40:00,
2013-03-09 20:46:00,63.5,41.2,29.88,SE,126,6.0,11.0,44,0.00,,SKC,0.00,VWS V14.01,2013-03-10 02:46:00,
2013-03-09 20:51:00,63.3,41.6,29.88,SE,142,6.0,11.0,45,0.00,,SKC,0.00,VWS V14.01,2013-03-10 02:51:00,
2013-03-09 20:56:00,63.1,41.4,29.89,SE,139,2.0,11.0,45,0.00,,SKC,0.00,VWS V14.01,2013-03-10 02:56:00,
2013-03-09 21:01:00,63.1,40.9,29.89,SE,126,3.0,11.0,44,0.00,,SKC,0.00,VWS V14.01,2013-03-10 03:01:00,
2013-03-09 21:06:00,63.0,41.3,29.90,SE,126,5.0,6.0,45,0.00,,SKC,0.00,VWS V14.01,2013-03-10 03:06:00,
2013-03-09 21:11:00,62.9,41.3,29.90,SSE,149,4.0,7.0,45,0.00,,SKC,0.00,VWS V14.01,2013-03-10 03:11:00,
2013-03-09 21:16:00,62.6,41.0,29.89,SSE,153,4.0,8.0,45,0.00,,SKC,0.00,VWS V14.01,2013-03-10 03:16:00,
2013-03-09 21:21:00,62.5,41.5,29.89,SE,136,5.0,10.0,46,0.00,,SKC,0.00,VWS V14.01,2013-03-10 03:21:00,
2013-03-09 21:26:00,62.6,41.5,29.89,SE,145,5.0,11.0,46,0.00,,SKC,0.00,VWS V14.01,2013-03-10 03:26:00,
2013-03-09 21:31:00,62.5,41.5,29.89,SE,138,4.0,11.0,46,0.00,,SKC,0.00,VWS V14.01,2013-03-10 03:31:00,
2013-03-09 21:36:00,62.2,41.7,29.88,SSE,148,4.0,6.0,47,0.00,,SKC,0.00,VWS V14.01,2013-03-10 03:36:00,
2013-03-09 21:41:00,62.4,41.9,29.88,SE,137,5.0,10.0,47,0.00,,SKC,0.00,VWS V14.01,2013-03-10 03:41:00,
2013-03-09 21:46:00,62.5,41.5,29.88,SSE,150,4.0,10.0,46,0.00,,SKC,0.00,VWS V14.01,2013-03-10 03:46:00,
2013-03-09 21:51:00,62.6,41.5,29.88,SE,140,4.0,11.0,46,0.00,,SKC,0.00,VWS V14.01,2013-03-10 03:51:00,
2013-03-09 21:56:00,62.7,41.6,29.88,ESE,119,3.0,11.0,46,0.00,,SKC,0.00,VWS V14.01,2013-03-10 03:56:00,
2013-03-09 22:01:00,62.7,41.6,29.87,SE,144,6.0,11.0,46,0.00,,SKC,0.00,VWS V14.01,2013-03-10 04:01:00,
2013-03-09 22:06:00,62.7,41.6,29.88,SSE,150,3.0,10.0,46,0.00,,SKC,0.00,VWS V14.01,2013-03-10 04:06:00,
2013-03-09 22:11:00,62.7,41.6,29.88,SSE,163,7.0,10.0,46,0.00,,SKC,0.00,VWS V14.01,2013-03-10 04:11:00,
2013-03-09 22:16:00,63.0,41.3,29.88,SSE,153,4.0,13.0,45,0.00,,SKC,0.00,VWS V14.01,2013-03-10 04:16:00,
2013-03-09 22:21:00,62.9,41.3,29.87,SE,145,6.0,13.0,45,0.00,,SKC,0.00,VWS V14.01,2013-03-10 04:21:00,
2013-03-09 22:26:00,63.0,41.3,29.87,SSE,151,5.0,13.0,45,0.00,,SKC,0.00,VWS V14.01,2013-03-10 04:26:00,
2013-03-09 22:31:00,63.0,41.3,29.87,SE,144,9.0,13.0,45,0.00,,SKC,0.00,VWS V14.01,2013-03-10 04:31:00,
2013-03-09 22:36:00,63.0,41.3,29.87,SSE,161,7.0,13.0,45,0.00,,SKC,0.00,VWS V14.01,2013-03-10 04:36:00,
2013-03-09 22:41:00,62.9,41.3,29.87,SSE,164,5.0,13.0,45,0.00,,SKC,0.00,VWS V14.01,2013-03-10 04:41:00,
2013-03-09 22:46:00,63.1,41.4,29.87,SSE,161,1.0,13.0,45,0.00,,SKC,0.00,VWS V14.01,2013-03-10 04:46:00,
2013-03-09 22:51:00,63.0,41.3,29.87,SE,136,3.0,13.0,45,0.00,,SKC,0.00,VWS V14.01,2013-03-10 04:51:00,
2013-03-09 22:56:00,63.0,41.3,29.87,SSE,150,3.0,15.0,45,0.00,,SKC,0.00,VWS V14.01,2013-03-10 04:56:00,
2013-03-09 23:00:00,63.2,41.5,29.87,SSE,150,9.0,15.0,45,0.00,,SKC,0.00,VWS V14.01,2013-03-10 05:00:00,
2013-03-09 23:05:00,63.5,41.8,29.87,SSE,148,2.0,13.0,45,0.00,,SKC,0.00,VWS V14.01,2013-03-10 05:05:00,
2013-03-09 23:10:00,63.6,41.9,29.87,South,184,4.0,14.0,45,0.00,,SKC,0.00,VWS V14.01,2013-03-10 05:10:00,
2013-03-09 23:16:00,63.8,42.1,29.87,SSE,151,10.0,14.0,45,0.00,,SKC,0.00,VWS V14.01,2013-03-10 05:16:00,
2013-03-09 23:21:00,63.9,42.2,29.87,SSE,148,3.0,14.0,45,0.00,,SKC,0.00,VWS V14.01,2013-03-10 05:21:00,
2013-03-09 23:26:00,63.9,42.2,29.87,SSE,160,6.0,14.0,45,0.00,,SKC,0.00,VWS V14.01,2013-03-10 05:26:00,
2013-03-09 23:30:00,63.9,43.8,29.88,SE,143,6.0,16.0,48,0.00,,SKC,0.00,VWS V14.01,2013-03-10 05:30:00,
2013-03-09 23:31:00,64.1,42.3,29.88,SE,142,5.0,14.0,45,0.00,,SKC,0.00,VWS V14.01,2013-03-10 05:31:00,
2013-03-09 23:36:00,64.2,42.4,29.87,SSE,153,9.0,15.0,45,0.00,,SKC,0.00,VWS V14.01,2013-03-10 05:36:00,
2013-03-09 23:41:00,64.1,42.3,29.87,South,182,6.0,15.0,45,0.00,,SKC,0.00,VWS V14.01,2013-03-10 05:41:00,
2013-03-09 23:46:00,64.1,42.9,29.87,South,175,6.0,17.0,46,0.00,,SKC,0.00,VWS V14.01,2013-03-10 05:46:00,
2013-03-09 23:51:00,64.1,42.9,29.87,South,179,9.0,17.0,46,0.00,,SKC,0.00,VWS V14.01,2013-03-10 05:51:00,
2013-03-09 23:56:00,64.0,42.8,29.87,SE,145,6.0,17.0,46,0.00,,SKC,0.00,VWS V14.01,2013-03-10 05:56:00,